Terminal Aerodrome Forecast
Issued by NWS

Home | Current Version | Previous Version | Text Only | Print | Product List | Glossary On
Versions: 1 2 3 4 5 6 7 8 9 10 11 12
663
FTUS45 KRIW 052322
TAFRKS
TAF
KRKS 052322Z 0600/0624 17011KT P6SM SCT080 BKN150
     FM060200 16008KT P6SM SCT070 BKN120
     FM061400 07015G23KT P6SM VCSH SCT030 BKN060
     FM061900 08016G24KT P6SM VCTS SCT025CB BKN050=

USA.gov is the U.S. government's official web portal to all federal, state and local government web resources and services.